Time;durP1;ratioP1;P1;durP2;ratioP2;P2;SDS_P1;SDS_P2;PMS_P1;PMS_P2;Temp;Humidity;BMP_temperature;BMP_pressure;BME280_temperature;BME280_humidity;BME280_pressure;Samples;Min_cycle;Max_cycle;Signal;HPM_P1;HPM_P2
2022/04/05 00:01:28;;;;;;;;;17.00;11.00;;;;;;;;5067626;28;51104;-57
2022/04/05 00:04:19;;;;;;;;;15.75;10.25;;;;;;;;5063293;27;51183;-57
2022/04/05 00:07:04;;;;;;;;;15.00;11.00;;;;;;;;5068935;27;51179;-57
2022/04/05 00:09:53;;;;;;;;;21.75;9.75;;;;;;;;5067297;27;51186;-57
2022/04/05 00:12:40;;;;;;;;;18.50;11.25;;;;;;;;5065151;27;51139;-57
2022/04/05 00:15:24;;;;;;;;;19.25;11.50;;;;;;;;5075245;27;51210;-57
2022/04/05 00:18:08;;;;;;;;;15.00;10.00;;;;;;;;5073068;27;51221;-58
2022/04/05 00:20:56;;;;;;;;;16.00;11.25;;;;;;;;5063922;27;51009;-57
2022/04/05 00:23:50;;;;;;;;;17.50;10.25;;;;;;;;5063523;27;51308;-57
2022/04/05 00:26:36;;;;;;;;;16.25;12.75;;;;;;;;5062695;28;51251;-57
2022/04/05 00:29:29;;;;;;;;;16.75;11.50;;;;;;;;5068953;27;51551;-57
2022/04/05 00:32:13;;;;;;;;;10.75;8.25;;;;;;;;5068046;27;51127;-58
2022/04/05 00:35:08;;;;;;;;;19.50;10.00;;;;;;;;5065766;27;51165;-57
2022/04/05 00:38:01;;;;;;;;;13.75;10.75;;;;;;;;5060481;27;51128;-57
2022/04/05 00:40:50;;;;;;;;;13.25;7.75;;;;;;;;5069151;27;51456;-57
2022/04/05 00:43:41;;;;;;;;;16.50;12.00;;;;;;;;5066676;27;51134;-57
2022/04/05 00:46:25;;;;;;;;;17.50;10.25;;;;;;;;5056425;27;51126;-57
2022/04/05 00:49:14;;;;;;;;;9.25;8.25;;;;;;;;5067509;27;51360;-57
2022/04/05 00:51:58;;;;;;;;;17.50;9.75;;;;;;;;5071673;27;51148;-57
2022/04/05 00:55:22;;;;;;;;;14.00;11.25;;;;;;;;5062395;27;51258;-57
2022/04/05 00:58:11;;;;;;;;;13.00;10.25;;;;;;;;5046617;27;51084;-58
2022/04/05 01:00:57;;;;;;;;;13.75;11.25;;;;;;;;5042231;28;51177;-57
2022/04/05 01:03:43;;;;;;;;;11.75;10.25;;;;;;;;5045415;28;51091;-57
2022/04/05 01:06:33;;;;;;;;;16.00;12.00;;;;;;;;5074694;27;51416;-57
2022/04/05 01:09:39;;;;;;;;;21.75;13.00;;;;;;;;5059982;27;51126;-57
2022/04/05 01:12:26;;;;;;;;;12.00;11.00;;;;;;;;5041922;28;51013;-58
2022/04/05 01:15:12;;;;;;;;;13.50;10.00;;;;;;;;5042901;28;51137;-57
2022/04/05 01:18:07;;;;;;;;;15.00;9.00;;;;;;;;5041192;28;51151;-57
2022/04/05 01:20:53;;;;;;;;;14.50;8.75;;;;;;;;5041759;28;51279;-57
2022/04/05 01:23:44;;;;;;;;;9.50;7.50;;;;;;;;5042966;28;53272;-58
2022/04/05 01:26:39;;;;;;;;;15.50;12.00;;;;;;;;5041614;28;51241;-57
2022/04/05 01:29:39;;;;;;;;;13.50;9.00;;;;;;;;5041521;28;51121;-57
2022/04/05 01:32:35;;;;;;;;;17.50;13.00;;;;;;;;5041945;28;51155;-58
2022/04/05 01:35:21;;;;;;;;;20.25;11.50;;;;;;;;5042626;28;51204;-58
2022/04/05 01:38:16;;;;;;;;;18.25;12.00;;;;;;;;5064743;27;51136;-57
2022/04/05 01:41:02;;;;;;;;;19.50;11.00;;;;;;;;5074299;27;51150;-57
2022/04/05 01:43:46;;;;;;;;;16.00;11.25;;;;;;;;5072957;27;51182;-57
2022/04/05 01:46:33;;;;;;;;;16.50;11.25;;;;;;;;5073536;27;51138;-57
2022/04/05 01:49:17;;;;;;;;;13.00;10.75;;;;;;;;5072057;27;51051;-58
2022/04/05 01:52:04;;;;;;;;;19.00;14.25;;;;;;;;5054328;27;51153;-57
2022/04/05 01:54:51;;;;;;;;;14.00;10.50;;;;;;;;5045234;28;51170;-57
2022/04/05 01:57:36;;;;;;;;;13.75;8.25;;;;;;;;5041181;28;51188;-57
2022/04/05 02:00:27;;;;;;;;;20.00;11.25;;;;;;;;5040915;28;51071;-57
2022/04/05 02:03:21;;;;;;;;;17.00;11.75;;;;;;;;5046050;27;51101;-57
2022/04/05 02:06:06;;;;;;;;;15.75;9.75;;;;;;;;5065876;27;51122;-58
2022/04/05 02:08:50;;;;;;;;;15.50;8.50;;;;;;;;5069448;27;51020;-57
2022/04/05 02:11:37;;;;;;;;;19.25;11.00;;;;;;;;5041297;28;51060;-57
2022/04/05 02:14:22;;;;;;;;;15.00;9.25;;;;;;;;5040383;28;51171;-58
2022/04/05 02:17:07;;;;;;;;;13.00;10.75;;;;;;;;5040795;28;51090;-57
2022/04/05 02:20:17;;;;;;;;;13.50;9.75;;;;;;;;5047412;28;51148;-58
2022/04/05 02:23:02;;;;;;;;;15.75;8.75;;;;;;;;5044305;28;51186;-57
2022/04/05 02:25:46;;;;;;;;;12.75;9.50;;;;;;;;5040148;28;51199;-57
2022/04/05 02:28:36;;;;;;;;;10.25;10.00;;;;;;;;5040777;28;51384;-57
2022/04/05 02:31:22;;;;;;;;;14.50;9.00;;;;;;;;5044253;28;51130;-57
2022/04/05 02:34:09;;;;;;;;;15.00;9.25;;;;;;;;5040257;28;51195;-57
2022/04/05 02:36:58;;;;;;;;;16.50;10.25;;;;;;;;5040208;27;51479;-57
2022/04/05 02:39:44;;;;;;;;;11.75;7.75;;;;;;;;5039800;28;51175;-57
2022/04/05 02:42:29;;;;;;;;;15.75;7.00;;;;;;;;5040381;28;51177;-57
2022/04/05 02:45:14;;;;;;;;;19.00;12.25;;;;;;;;5040145;28;51139;-57
2022/04/05 02:48:00;;;;;;;;;12.25;10.25;;;;;;;;5039909;28;51479;-58
2022/04/05 02:50:47;;;;;;;;;13.75;8.75;;;;;;;;5039763;28;51106;-57
2022/04/05 02:53:31;;;;;;;;;12.50;10.50;;;;;;;;5069701;27;51104;-57
2022/04/05 02:56:17;;;;;;;;;13.50;9.25;;;;;;;;5074968;27;51154;-57
2022/04/05 02:59:02;;;;;;;;;15.00;9.50;;;;;;;;5069051;27;51096;-57
2022/04/05 03:01:48;;;;;;;;;11.25;10.75;;;;;;;;5068542;27;51048;-57
2022/04/05 03:04:42;;;;;;;;;16.25;8.25;;;;;;;;5063536;27;51115;-57
2022/04/05 03:07:37;;;;;;;;;9.50;7.50;;;;;;;;5039299;28;51099;-58
2022/04/05 03:10:23;;;;;;;;;12.00;8.25;;;;;;;;5041084;28;51196;-57
2022/04/05 03:13:12;;;;;;;;;12.25;8.00;;;;;;;;5039665;28;51405;-57
2022/04/05 03:15:57;;;;;;;;;11.25;9.00;;;;;;;;5039904;28;51103;-57
2022/04/05 03:18:45;;;;;;;;;6.50;6.50;;;;;;;;5039942;28;51091;-57
2022/04/05 03:21:30;;;;;;;;;13.75;8.50;;;;;;;;5039260;28;51159;-57
2022/04/05 03:24:26;;;;;;;;;12.00;6.25;;;;;;;;5048619;28;51043;-57
2022/04/05 03:27:10;;;;;;;;;12.25;9.25;;;;;;;;5078070;27;51558;-57
2022/04/05 03:29:55;;;;;;;;;15.75;9.75;;;;;;;;5079826;27;51054;-57
2022/04/05 03:32:41;;;;;;;;;12.00;8.75;;;;;;;;5079512;27;51508;-58
2022/04/05 03:35:27;;;;;;;;;17.00;8.75;;;;;;;;5079653;27;51109;-57
2022/04/05 03:38:33;;;;;;;;;16.25;9.50;;;;;;;;5079366;27;51525;-57
2022/04/05 03:41:18;;;;;;;;;12.75;6.75;;;;;;;;5078984;27;51389;-57
2022/04/05 03:44:03;;;;;;;;;15.25;9.75;;;;;;;;5079845;27;51019;-57
2022/04/05 03:47:20;;;;;;;;;14.50;9.75;;;;;;;;5079579;27;51126;-57
2022/04/05 03:50:04;;;;;;;;;13.75;9.50;;;;;;;;5079613;28;51111;-57
2022/04/05 03:52:57;;;;;;;;;18.50;10.25;;;;;;;;5043769;28;51417;-57
2022/04/05 03:55:42;;;;;;;;;15.00;8.50;;;;;;;;5039317;28;51154;-57
2022/04/05 03:58:37;;;;;;;;;12.75;8.00;;;;;;;;5038778;28;50982;-57
2022/04/05 04:01:41;;;;;;;;;18.50;11.00;;;;;;;;5049932;28;51213;-58
2022/04/05 04:04:27;;;;;;;;;13.00;11.50;;;;;;;;5071328;28;51193;-58
2022/04/05 04:07:11;;;;;;;;;11.50;8.25;;;;;;;;5069103;28;51111;-57
2022/04/05 04:10:00;;;;;;;;;18.00;11.00;;;;;;;;5049743;28;51060;-57
2022/04/05 04:12:48;;;;;;;;;13.50;7.50;;;;;;;;5042171;28;51120;-57
2022/04/05 04:15:56;;;;;;;;;16.25;8.50;;;;;;;;5039017;28;51201;-57
2022/04/05 04:18:43;;;;;;;;;19.50;11.25;;;;;;;;5039262;28;51097;-57
2022/04/05 04:21:29;;;;;;;;;18.75;10.00;;;;;;;;5043733;28;51021;-57
2022/04/05 04:24:14;;;;;;;;;15.00;11.75;;;;;;;;5038854;28;51152;-57
2022/04/05 04:26:59;;;;;;;;;14.25;8.00;;;;;;;;5075419;28;51091;-57
2022/04/05 04:29:44;;;;;;;;;10.50;8.00;;;;;;;;5057341;28;51191;-58
2022/04/05 04:32:37;;;;;;;;;20.25;13.00;;;;;;;;5059394;28;51235;-57
2022/04/05 04:35:24;;;;;;;;;6.00;3.50;;;;;;;;5050772;28;51246;-57
2022/04/05 04:38:09;;;;;;;;;15.75;11.00;;;;;;;;5066641;28;51543;-58
2022/04/05 04:40:53;;;;;;;;;8.50;6.50;;;;;;;;5064063;28;51253;-57
2022/04/05 04:43:40;;;;;;;;;17.25;11.00;;;;;;;;5051123;28;51509;-57
2022/04/05 04:46:44;;;;;;;;;15.25;10.00;;;;;;;;5038503;28;50516;-57
2022/04/05 04:49:29;;;;;;;;;14.00;8.75;;;;;;;;5038208;28;51375;-57
2022/04/05 04:52:15;;;;;;;;;17.75;10.00;;;;;;;;5039977;28;51046;-58
2022/04/05 04:55:01;;;;;;;;;16.00;8.25;;;;;;;;5070381;27;51371;-57
2022/04/05 04:58:08;;;;;;;;;13.50;11.00;;;;;;;;5041669;28;51208;-58
2022/04/05 05:00:52;;;;;;;;;19.00;11.25;;;;;;;;5043537;28;51079;-57
2022/04/05 05:03:41;;;;;;;;;13.25;9.00;;;;;;;;5045688;27;51120;-57
2022/04/05 05:06:25;;;;;;;;;16.50;9.25;;;;;;;;5082628;27;51194;-57
2022/04/05 05:09:10;;;;;;;;;18.25;12.25;;;;;;;;5076283;27;51170;-57
2022/04/05 05:12:01;;;;;;;;;16.25;11.50;;;;;;;;5063969;27;51356;-58
2022/04/05 05:14:45;;;;;;;;;11.75;9.00;;;;;;;;5074247;27;51086;-58
2022/04/05 05:17:30;;;;;;;;;14.00;10.75;;;;;;;;5060271;27;51153;-57
2022/04/05 05:20:18;;;;;;;;;13.00;9.25;;;;;;;;5077161;27;51455;-57
2022/04/05 05:23:14;;;;;;;;;11.75;8.50;;;;;;;;5041311;28;51134;-56
2022/04/05 05:26:01;;;;;;;;;18.25;8.25;;;;;;;;5042015;28;51038;-58
2022/04/05 05:29:00;;;;;;;;;14.00;9.25;;;;;;;;5041719;28;51029;-57
2022/04/05 05:31:48;;;;;;;;;23.50;10.25;;;;;;;;5053337;27;51023;-58
2022/04/05 05:34:34;;;;;;;;;18.00;10.25;;;;;;;;5080998;27;50999;-57
2022/04/05 05:37:21;;;;;;;;;14.25;9.75;;;;;;;;5082188;27;51169;-57
2022/04/05 05:40:06;;;;;;;;;17.75;12.00;;;;;;;;5080505;27;51031;-57
2022/04/05 05:42:53;;;;;;;;;15.75;11.00;;;;;;;;5041168;28;51102;-57
2022/04/05 05:45:51;;;;;;;;;15.50;11.25;;;;;;;;5062813;27;51452;-57
2022/04/05 05:48:38;;;;;;;;;15.50;12.00;;;;;;;;5070373;27;51376;-49
2022/04/05 05:51:22;;;;;;;;;17.25;10.50;;;;;;;;5041337;28;51379;-45
2022/04/05 05:54:08;;;;;;;;;13.00;9.50;;;;;;;;5042020;28;51476;-50
2022/04/05 05:56:52;;;;;;;;;11.25;9.50;;;;;;;;5043066;27;51146;-50
2022/04/05 05:59:39;;;;;;;;;16.25;11.25;;;;;;;;5080234;27;51414;-50
2022/04/05 06:02:26;;;;;;;;;12.25;8.25;;;;;;;;5046626;28;51491;-52
2022/04/05 06:05:15;;;;;;;;;18.00;11.75;;;;;;;;5040712;28;51118;-48
2022/04/05 06:08:00;;;;;;;;;17.00;11.75;;;;;;;;5068115;27;51033;-47
2022/04/05 06:10:44;;;;;;;;;16.25;11.25;;;;;;;;5070334;27;51427;-52
2022/04/05 06:13:29;;;;;;;;;14.50;10.00;;;;;;;;5058815;27;51145;-46
2022/04/05 06:16:14;;;;;;;;;20.75;16.25;;;;;;;;5049454;28;51288;-49
2022/04/05 06:19:22;;;;;;;;;22.75;17.00;;;;;;;;5041310;28;51356;-47
2022/04/05 06:22:08;;;;;;;;;18.25;13.50;;;;;;;;5042136;28;51171;-47
2022/04/05 06:24:53;;;;;;;;;12.25;8.50;;;;;;;;5064445;27;51188;-49
2022/04/05 06:27:41;;;;;;;;;22.00;14.25;;;;;;;;5078008;27;51090;-50
2022/04/05 06:30:40;;;;;;;;;15.50;11.75;;;;;;;;5052705;27;51096;-47
2022/04/05 06:33:30;;;;;;;;;13.00;8.25;;;;;;;;5040026;28;51177;-49
2022/04/05 06:36:15;;;;;;;;;14.50;11.50;;;;;;;;5040121;28;51465;-48
2022/04/05 06:38:59;;;;;;;;;17.00;11.00;;;;;;;;5043272;28;51134;-49
2022/04/05 06:41:56;;;;;;;;;14.00;9.00;;;;;;;;5076064;27;51170;-47
2022/04/05 06:44:50;;;;;;;;;12.00;7.75;;;;;;;;5080053;27;51201;-47
2022/04/05 06:47:45;;;;;;;;;17.75;11.75;;;;;;;;5080389;27;51125;-49
2022/04/05 06:50:29;;;;;;;;;18.75;10.25;;;;;;;;5075098;27;51268;-45
2022/04/05 06:53:14;;;;;;;;;15.50;11.75;;;;;;;;5040232;28;51119;-49
2022/04/05 06:56:00;;;;;;;;;21.50;14.50;;;;;;;;5039444;28;51072;-50
2022/04/05 06:58:45;;;;;;;;;14.50;10.75;;;;;;;;5058269;27;51179;-47
2022/04/05 07:01:32;;;;;;;;;11.50;7.75;;;;;;;;5042504;27;51543;-47
2022/04/05 07:04:17;;;;;;;;;14.25;11.25;;;;;;;;5070213;27;51179;-48
2022/04/05 07:07:05;;;;;;;;;19.00;12.00;;;;;;;;5065292;27;51088;-50
2022/04/05 07:09:50;;;;;;;;;14.75;9.25;;;;;;;;5060043;27;51241;-47
2022/04/05 07:12:36;;;;;;;;;14.00;11.50;;;;;;;;5067402;27;51241;-45
2022/04/05 07:15:20;;;;;;;;;22.00;14.00;;;;;;;;5072487;27;51147;-49
2022/04/05 07:18:04;;;;;;;;;9.00;7.25;;;;;;;;5061224;27;51039;-48
2022/04/05 07:20:50;;;;;;;;;18.75;12.25;;;;;;;;5061669;27;51366;-51
2022/04/05 07:23:36;;;;;;;;;10.75;6.50;;;;;;;;5062718;27;51167;-47
2022/04/05 07:26:21;;;;;;;;;8.75;7.00;;;;;;;;5058304;27;51466;-49
2022/04/05 07:29:06;;;;;;;;;14.25;7.25;;;;;;;;5074258;27;51146;-50
2022/04/05 07:31:52;;;;;;;;;13.00;10.25;;;;;;;;5078801;27;51153;-49
2022/04/05 07:34:46;;;;;;;;;12.75;9.00;;;;;;;;5073902;27;52295;-50
2022/04/05 07:37:32;;;;;;;;;13.00;8.00;;;;;;;;5043753;28;51126;-49
2022/04/05 07:40:19;;;;;;;;;9.75;6.25;;;;;;;;5058650;27;51274;-49
2022/04/05 07:43:05;;;;;;;;;10.25;6.50;;;;;;;;5055151;28;51057;-47
2022/04/05 07:45:56;;;;;;;;;9.75;7.25;;;;;;;;5075671;27;51500;-48
2022/04/05 07:48:46;;;;;;;;;8.75;5.50;;;;;;;;5076211;27;51166;-51
2022/04/05 07:51:32;;;;;;;;;7.00;5.25;;;;;;;;5032374;28;51980;-48
2022/04/05 07:54:19;;;;;;;;;5.00;5.00;;;;;;;;5045440;28;51040;-49
2022/04/05 07:57:09;;;;;;;;;7.00;5.00;;;;;;;;5043733;28;52403;-49
2022/04/05 08:00:15;;;;;;;;;10.75;8.00;;;;;;;;5059506;28;51337;-48
2022/04/05 08:03:01;;;;;;;;;9.25;7.00;;;;;;;;5068470;28;51436;-48
2022/04/05 08:05:49;;;;;;;;;9.50;7.50;;;;;;;;5074500;28;51086;-49
2022/04/05 08:08:42;;;;;;;;;11.00;7.50;;;;;;;;5078594;28;51169;-49
2022/04/05 08:11:27;;;;;;;;;7.75;4.25;;;;;;;;5074475;28;51094;-51
2022/04/05 08:14:14;;;;;;;;;9.00;7.75;;;;;;;;5069281;28;51069;-48
2022/04/05 08:17:20;;;;;;;;;9.50;7.50;;;;;;;;5079000;28;51413;-49
2022/04/05 08:20:06;;;;;;;;;7.25;5.00;;;;;;;;5062683;28;51123;-49
2022/04/05 08:22:51;;;;;;;;;10.00;7.00;;;;;;;;5070935;28;51163;-48
2022/04/05 08:25:36;;;;;;;;;7.75;5.50;;;;;;;;5069193;27;51348;-47
2022/04/05 08:28:22;;;;;;;;;14.75;7.25;;;;;;;;5076938;27;51068;-50
2022/04/05 08:31:06;;;;;;;;;12.00;7.25;;;;;;;;5068986;27;51643;-52
2022/04/05 08:33:51;;;;;;;;;11.25;6.50;;;;;;;;5050299;27;51214;-50
2022/04/05 08:36:35;;;;;;;;;15.75;10.25;;;;;;;;5054333;27;51616;-48
2022/04/05 08:39:23;;;;;;;;;15.00;6.75;;;;;;;;5066746;27;51192;-49
2022/04/05 08:42:07;;;;;;;;;11.25;8.00;;;;;;;;5045267;28;51343;-46
2022/04/05 08:45:06;;;;;;;;;14.75;13.75;;;;;;;;5059093;27;51177;-47
2022/04/05 08:47:53;;;;;;;;;9.00;7.00;;;;;;;;5005602;28;51076;-49
2022/04/05 08:50:38;;;;;;;;;12.75;8.00;;;;;;;;5012370;28;51446;-48
2022/04/05 08:53:22;;;;;;;;;10.50;7.50;;;;;;;;5018895;28;51426;-51
2022/04/05 08:56:13;;;;;;;;;10.00;7.25;;;;;;;;5018854;28;51188;-51
2022/04/05 08:59:01;;;;;;;;;13.75;8.25;;;;;;;;5021491;28;51241;-48
2022/04/05 09:01:47;;;;;;;;;13.00;8.50;;;;;;;;5008084;28;51366;-50
2022/04/05 09:04:33;;;;;;;;;12.25;10.50;;;;;;;;5025828;28;52471;-46
2022/04/05 09:07:18;;;;;;;;;9.50;8.25;;;;;;;;5021635;28;51663;-49
2022/04/05 09:10:13;;;;;;;;;14.75;8.25;;;;;;;;5023471;28;51141;-49
2022/04/05 09:12:58;;;;;;;;;12.50;7.25;;;;;;;;5024818;28;51116;-48
2022/04/05 09:15:48;;;;;;;;;7.00;6.00;;;;;;;;5029538;28;51529;-51
2022/04/05 09:18:36;;;;;;;;;10.00;5.50;;;;;;;;5033169;28;51576;-50
2022/04/05 09:21:57;;;;;;;;;12.00;7.25;;;;;;;;5026057;28;51184;-50
2022/04/05 09:24:43;;;;;;;;;11.25;7.00;;;;;;;;5002422;28;51114;-50
2022/04/05 09:27:41;;;;;;;;;10.75;8.50;;;;;;;;5022843;28;51120;-47
2022/04/05 09:30:31;;;;;;;;;9.75;5.25;;;;;;;;5027077;28;51146;-48
2022/04/05 09:33:26;;;;;;;;;6.50;5.50;;;;;;;;5023311;28;51194;-47
2022/04/05 09:36:15;;;;;;;;;12.50;5.75;;;;;;;;5006340;28;51161;-49
2022/04/05 09:39:20;;;;;;;;;10.50;5.75;;;;;;;;5021464;28;51540;-47
2022/04/05 09:42:07;;;;;;;;;13.75;8.25;;;;;;;;5016827;28;51521;-49
2022/04/05 09:44:53;;;;;;;;;17.50;11.75;;;;;;;;5052526;27;51230;-49
2022/04/05 09:47:40;;;;;;;;;34.25;25.00;;;;;;;;5053141;28;51189;-51
2022/04/05 09:50:24;;;;;;;;;18.00;9.50;;;;;;;;5071492;27;51102;-48
2022/04/05 09:53:09;;;;;;;;;9.00;5.25;;;;;;;;5062804;27;51090;-48
2022/04/05 09:56:22;;;;;;;;;12.50;6.75;;;;;;;;5046816;27;51119;-48
2022/04/05 09:59:16;;;;;;;;;15.00;8.50;;;;;;;;5069261;27;51157;-51
2022/04/05 10:02:07;;;;;;;;;10.50;4.75;;;;;;;;5048882;27;51139;-49
2022/04/05 10:05:00;;;;;;;;;6.25;4.00;;;;;;;;5063424;27;51148;-48
2022/04/05 10:07:46;;;;;;;;;12.25;10.25;;;;;;;;5055540;27;51125;-50
2022/04/05 10:10:31;;;;;;;;;8.50;1.00;;;;;;;;5070553;27;51049;-49
2022/04/05 10:13:28;;;;;;;;;6.00;5.25;;;;;;;;5055498;27;51279;-47
2022/04/05 10:16:23;;;;;;;;;8.75;5.25;;;;;;;;5053816;27;51171;-47
2022/04/05 10:19:14;;;;;;;;;9.25;5.50;;;;;;;;5064217;27;51103;-49
2022/04/05 10:21:58;;;;;;;;;3.75;2.00;;;;;;;;5046345;27;51151;-46
2022/04/05 10:24:59;;;;;;;;;9.50;5.50;;;;;;;;5052876;27;51557;-49
2022/04/05 10:27:47;;;;;;;;;10.25;6.00;;;;;;;;5071842;27;51083;-48
2022/04/05 10:30:38;;;;;;;;;13.25;6.00;;;;;;;;5041200;27;50941;-47
2022/04/05 10:33:37;;;;;;;;;7.25;5.25;;;;;;;;5055631;27;51151;-45
2022/04/05 10:36:23;;;;;;;;;6.25;5.25;;;;;;;;5059113;27;51131;-47
2022/04/05 10:39:14;;;;;;;;;8.00;6.25;;;;;;;;5078791;27;51095;-46
2022/04/05 10:42:28;;;;;;;;;7.25;4.25;;;;;;;;5077957;27;51100;-50
2022/04/05 10:45:17;;;;;;;;;9.50;5.25;;;;;;;;5079992;27;51457;-48
2022/04/05 10:48:12;;;;;;;;;7.25;5.75;;;;;;;;5072318;27;51106;-49
2022/04/05 10:50:59;;;;;;;;;6.75;5.25;;;;;;;;5079493;27;51075;-49
2022/04/05 10:54:18;;;;;;;;;6.75;4.75;;;;;;;;5079732;27;51086;-48
2022/04/05 10:57:38;;;;;;;;;7.25;6.25;;;;;;;;5072508;27;51120;-46
2022/04/05 11:00:28;;;;;;;;;9.00;3.75;;;;;;;;4993130;28;51658;-47
2022/04/05 11:03:16;;;;;;;;;6.50;3.50;;;;;;;;5079652;27;51189;-49
2022/04/05 11:06:04;;;;;;;;;8.00;4.25;;;;;;;;5074957;27;51129;-51
2022/04/05 11:09:06;;;;;;;;;4.75;4.75;;;;;;;;5075707;27;51238;-48
2022/04/05 11:11:51;;;;;;;;;2.25;0.00;;;;;;;;5073863;27;51463;-47
2022/04/05 11:14:50;;;;;;;;;9.00;5.00;;;;;;;;5079472;27;51083;-47
2022/04/05 11:17:59;;;;;;;;;11.25;6.00;;;;;;;;5076074;27;51043;-46
2022/04/05 11:20:45;;;;;;;;;8.50;5.25;;;;;;;;5079308;27;51151;-47
2022/04/05 11:23:57;;;;;;;;;11.00;5.75;;;;;;;;5058805;27;51161;-47
2022/04/05 11:26:44;;;;;;;;;7.25;5.00;;;;;;;;5058088;27;51502;-47
2022/04/05 11:29:31;;;;;;;;;9.50;4.25;;;;;;;;5079887;27;51411;-47
2022/04/05 11:32:15;;;;;;;;;11.50;6.00;;;;;;;;5079252;27;51066;-46
2022/04/05 11:35:02;;;;;;;;;12.75;6.25;;;;;;;;5078334;27;51034;-47
2022/04/05 11:37:48;;;;;;;;;9.00;6.00;;;;;;;;5038283;28;51285;-46
2022/04/05 11:40:43;;;;;;;;;11.50;7.75;;;;;;;;5038920;28;51100;-47
2022/04/05 11:43:39;;;;;;;;;11.50;8.75;;;;;;;;5063884;27;51428;-47
2022/04/05 11:46:28;;;;;;;;;10.75;7.25;;;;;;;;5072162;27;51082;-46
2022/04/05 11:49:13;;;;;;;;;11.75;7.00;;;;;;;;5079526;27;51091;-46
2022/04/05 11:52:10;;;;;;;;;5.50;5.50;;;;;;;;5078819;27;51111;-47
2022/04/05 11:58:00;;;;;;;;;8.50;6.50;;;;;;;;5078497;28;51128;-47
2022/04/05 12:00:52;;;;;;;;;4.25;4.25;;;;;;;;5079856;27;51127;-49
2022/04/05 12:03:52;;;;;;;;;8.25;6.25;;;;;;;;5070304;27;51210;-47
2022/04/05 12:06:39;;;;;;;;;8.75;6.00;;;;;;;;5056189;27;51166;-47
2022/04/05 12:09:24;;;;;;;;;6.75;4.75;;;;;;;;5056442;28;51353;-45
2022/04/05 12:12:08;;;;;;;;;9.75;6.25;;;;;;;;5049199;28;51261;-45
2022/04/05 12:14:54;;;;;;;;;9.50;6.25;;;;;;;;5042601;28;51101;-43
2022/04/05 12:17:40;;;;;;;;;7.25;4.00;;;;;;;;5057285;27;51372;-46
2022/04/05 12:20:24;;;;;;;;;9.25;7.00;;;;;;;;5083268;27;51382;-45
2022/04/05 12:23:22;;;;;;;;;14.50;8.00;;;;;;;;5082918;27;51066;-44
2022/04/05 12:26:07;;;;;;;;;7.75;6.75;;;;;;;;5055874;27;51449;-46
2022/04/05 12:29:28;;;;;;;;;12.00;6.25;;;;;;;;5058348;27;51508;-45
2022/04/05 12:32:13;;;;;;;;;11.50;7.25;;;;;;;;5060843;27;51473;-47
2022/04/05 12:34:58;;;;;;;;;10.75;4.75;;;;;;;;5054359;28;51184;-47
2022/04/05 12:37:44;;;;;;;;;5.75;5.75;;;;;;;;5081421;27;51122;-46
2022/04/05 12:40:43;;;;;;;;;10.00;6.00;;;;;;;;5078902;27;51250;-48
2022/04/05 12:43:31;;;;;;;;;9.25;6.00;;;;;;;;5082841;27;51138;-47
2022/04/05 12:46:18;;;;;;;;;11.50;6.00;;;;;;;;5083040;27;51279;-44
2022/04/05 12:49:16;;;;;;;;;9.00;6.50;;;;;;;;5058156;28;51124;-45
2022/04/05 12:52:18;;;;;;;;;7.25;5.50;;;;;;;;5050939;28;51157;-45
2022/04/05 12:55:06;;;;;;;;;9.50;5.00;;;;;;;;5053421;28;52363;-46
2022/04/05 12:57:51;;;;;;;;;8.50;4.75;;;;;;;;5054287;28;51193;-47
2022/04/05 13:00:45;;;;;;;;;8.50;5.75;;;;;;;;5049139;27;51256;-45
2022/04/05 13:03:30;;;;;;;;;13.50;5.50;;;;;;;;5058809;27;51278;-47
2022/04/05 13:06:28;;;;;;;;;6.50;5.00;;;;;;;;5049540;28;51258;-46
2022/04/05 13:09:15;;;;;;;;;9.75;6.25;;;;;;;;5080479;27;51179;-45
2022/04/05 13:12:06;;;;;;;;;8.75;5.75;;;;;;;;5080740;27;51446;-45
2022/04/05 13:14:52;;;;;;;;;7.50;5.00;;;;;;;;5081333;27;51134;-48
2022/04/05 13:17:36;;;;;;;;;7.75;7.75;;;;;;;;5060860;27;51119;-46
2022/04/05 13:20:26;;;;;;;;;9.00;5.25;;;;;;;;5056408;27;51216;-46
2022/04/05 13:23:13;;;;;;;;;11.75;5.25;;;;;;;;5066731;27;51146;-46
2022/04/05 13:25:58;;;;;;;;;5.00;5.00;;;;;;;;5052313;27;51521;-46
2022/04/05 13:28:42;;;;;;;;;8.50;5.00;;;;;;;;5049347;27;51087;-50
2022/04/05 13:31:31;;;;;;;;;9.50;6.00;;;;;;;;5041206;28;51268;-47
2022/04/05 13:34:17;;;;;;;;;7.50;5.25;;;;;;;;5041319;28;51176;-47
2022/04/05 13:37:17;;;;;;;;;8.75;5.50;;;;;;;;5053577;28;51169;-46
2022/04/05 13:40:02;;;;;;;;;8.25;6.50;;;;;;;;5047644;28;51178;-46
2022/04/05 13:42:53;;;;;;;;;12.00;5.50;;;;;;;;5049233;28;51114;-49
2022/04/05 13:45:41;;;;;;;;;10.75;5.75;;;;;;;;5051948;27;51580;-47
2022/04/05 13:48:25;;;;;;;;;8.25;5.25;;;;;;;;5053646;27;51124;-48
2022/04/05 13:51:11;;;;;;;;;10.75;6.00;;;;;;;;5054932;27;51043;-48
2022/04/05 13:53:56;;;;;;;;;7.75;5.50;;;;;;;;5067455;27;51116;-47
2022/04/05 13:56:41;;;;;;;;;6.75;5.00;;;;;;;;5045076;28;51060;-50
2022/04/05 13:59:27;;;;;;;;;10.25;7.00;;;;;;;;5071364;27;51209;-48
2022/04/05 14:02:13;;;;;;;;;11.50;5.75;;;;;;;;5061317;27;51103;-48
2022/04/05 14:05:02;;;;;;;;;13.50;6.00;;;;;;;;5042595;28;51181;-46
2022/04/05 14:07:47;;;;;;;;;10.50;8.00;;;;;;;;5054275;27;51183;-52
2022/04/05 14:10:33;;;;;;;;;9.25;6.25;;;;;;;;5045028;27;51442;-47
2022/04/05 14:13:23;;;;;;;;;6.75;4.75;;;;;;;;5049357;28;51179;-47
2022/04/05 14:16:08;;;;;;;;;8.25;5.50;;;;;;;;5058565;27;51475;-51
2022/04/05 14:18:57;;;;;;;;;10.75;6.75;;;;;;;;5040101;28;51173;-46
2022/04/05 14:21:44;;;;;;;;;5.50;3.50;;;;;;;;5044623;28;51111;-47
2022/04/05 14:24:30;;;;;;;;;6.25;4.75;;;;;;;;5048248;28;51154;-46
2022/04/05 14:27:17;;;;;;;;;8.50;5.50;;;;;;;;5078785;27;51420;-49
2022/04/05 14:30:03;;;;;;;;;8.00;4.75;;;;;;;;5077795;27;51194;-49
2022/04/05 14:32:51;;;;;;;;;11.50;5.75;;;;;;;;5058443;27;51088;-48
2022/04/05 14:35:37;;;;;;;;;9.00;6.50;;;;;;;;5067352;27;51406;-48
2022/04/05 14:38:21;;;;;;;;;10.25;7.00;;;;;;;;5056112;27;51186;-47
2022/04/05 14:41:13;;;;;;;;;14.25;8.75;;;;;;;;5042057;27;51463;-48
2022/04/05 14:43:59;;;;;;;;;7.25;7.00;;;;;;;;5047852;27;51157;-50
2022/04/05 14:46:45;;;;;;;;;11.75;6.75;;;;;;;;5080297;27;51194;-48
2022/04/05 14:49:35;;;;;;;;;9.25;7.25;;;;;;;;5076896;27;51101;-47
2022/04/05 14:52:23;;;;;;;;;8.75;5.25;;;;;;;;5043563;28;51152;-47
2022/04/05 14:55:12;;;;;;;;;12.75;7.50;;;;;;;;5058514;28;51222;-48
2022/04/05 14:57:57;;;;;;;;;14.00;6.75;;;;;;;;5050833;27;51066;-48
2022/04/05 15:00:42;;;;;;;;;10.75;5.50;;;;;;;;5067537;27;51433;-47
2022/04/05 15:03:32;;;;;;;;;7.50;7.50;;;;;;;;5043525;27;51174;-49
2022/04/05 15:06:18;;;;;;;;;10.75;6.00;;;;;;;;5071377;27;51379;-47
2022/04/05 15:09:03;;;;;;;;;8.75;7.00;;;;;;;;5079963;27;51154;-49
2022/04/05 15:11:50;;;;;;;;;11.75;6.50;;;;;;;;5069071;27;51178;-47
2022/04/05 15:14:36;;;;;;;;;12.50;8.00;;;;;;;;5077494;27;51226;-49
2022/04/05 15:17:21;;;;;;;;;8.50;6.00;;;;;;;;5042682;27;51225;-47
2022/04/05 15:20:06;;;;;;;;;15.75;8.25;;;;;;;;5041377;28;51137;-46
2022/04/05 15:22:52;;;;;;;;;17.00;7.25;;;;;;;;5048531;27;51204;-47
2022/04/05 15:25:37;;;;;;;;;12.50;7.75;;;;;;;;5042658;28;51535;-48
2022/04/05 15:28:22;;;;;;;;;11.50;6.75;;;;;;;;5070632;27;51122;-47
2022/04/05 15:31:07;;;;;;;;;10.00;6.00;;;;;;;;5074322;27;51418;-48
2022/04/05 15:34:12;;;;;;;;;12.00;6.75;;;;;;;;5080123;27;51043;-46
2022/04/05 15:36:59;;;;;;;;;9.75;8.25;;;;;;;;5041831;27;51139;-50
2022/04/05 15:39:54;;;;;;;;;12.50;9.00;;;;;;;;5038848;28;51060;-47
2022/04/05 15:42:40;;;;;;;;;8.00;7.25;;;;;;;;5042882;27;51154;-49
2022/04/05 15:45:29;;;;;;;;;10.50;8.25;;;;;;;;5077229;27;51113;-46
2022/04/05 15:48:18;;;;;;;;;12.75;7.25;;;;;;;;5079705;27;51095;-50
2022/04/05 15:51:05;;;;;;;;;11.00;6.50;;;;;;;;5078839;27;51113;-47
2022/04/05 15:53:53;;;;;;;;;12.50;9.00;;;;;;;;5060509;28;51144;-48
2022/04/05 15:56:42;;;;;;;;;11.00;8.50;;;;;;;;5039291;28;51116;-48
2022/04/05 15:59:30;;;;;;;;;11.50;6.75;;;;;;;;5059670;28;51108;-48
2022/04/05 16:02:21;;;;;;;;;10.50;6.50;;;;;;;;5079412;28;51243;-46
2022/04/05 16:05:25;;;;;;;;;21.75;10.75;;;;;;;;5067307;28;51109;-46
2022/04/05 16:08:13;;;;;;;;;10.75;7.25;;;;;;;;5038763;28;51462;-48
2022/04/05 16:10:58;;;;;;;;;11.75;8.00;;;;;;;;5038148;28;51122;-49
2022/04/05 16:13:45;;;;;;;;;10.00;8.50;;;;;;;;5048449;28;51032;-48
2022/04/05 16:16:35;;;;;;;;;12.75;6.00;;;;;;;;5077532;28;51542;-48
2022/04/05 16:19:23;;;;;;;;;9.25;6.00;;;;;;;;5046649;28;51134;-49
2022/04/05 16:22:09;;;;;;;;;10.00;7.75;;;;;;;;5054206;28;51447;-49
2022/04/05 16:24:53;;;;;;;;;7.00;7.00;;;;;;;;5057582;28;51133;-46
2022/04/05 16:27:37;;;;;;;;;12.00;6.75;;;;;;;;5061493;28;51321;-50
2022/04/05 16:30:22;;;;;;;;;10.25;7.00;;;;;;;;5057037;28;51238;-51
2022/04/05 16:33:08;;;;;;;;;15.25;8.50;;;;;;;;5045417;28;51118;-47
2022/04/05 16:35:53;;;;;;;;;9.00;5.75;;;;;;;;5058069;28;51361;-48
2022/04/05 16:38:49;;;;;;;;;10.25;8.25;;;;;;;;5059421;28;51202;-49
2022/04/05 16:42:14;;;;;;;;;15.00;7.25;;;;;;;;5069251;28;51161;-49
2022/04/05 16:44:58;;;;;;;;;12.50;9.50;;;;;;;;5054736;28;51289;-49